createdAt,value
2023-04-12T00:01:07.656Z,8.46
2023-04-12T00:03:34.799Z,8.42
2023-04-12T00:06:03.608Z,8.37
2023-04-12T00:08:33.932Z,8.37
2023-04-12T00:11:02.907Z,8.34
2023-04-12T00:13:30.461Z,8.31
2023-04-12T00:15:57.290Z,8.27
2023-04-12T00:18:25.813Z,8.25
2023-04-12T00:20:53.380Z,8.20
2023-04-12T00:23:20.823Z,8.14
2023-04-12T00:25:48.082Z,8.10
2023-04-12T00:28:16.195Z,8.05
2023-04-12T00:30:43.235Z,8.04
2023-04-12T00:33:10.076Z,8.03
2023-04-12T00:35:36.938Z,7.95
2023-04-12T00:38:06.281Z,7.92
2023-04-12T00:40:33.389Z,7.90
2023-04-12T00:43:00.868Z,7.88
2023-04-12T00:45:27.746Z,7.83
2023-04-12T00:47:56.594Z,7.82
2023-04-12T00:50:24.192Z,7.78
2023-04-12T00:52:52.246Z,7.77
2023-04-12T00:55:19.213Z,7.76
2023-04-12T00:57:46.961Z,7.74
2023-04-12T01:00:14.207Z,7.72
2023-04-12T01:02:47.181Z,7.72
2023-04-12T01:05:22.385Z,7.73
2023-04-12T01:07:55.065Z,7.72
2023-04-12T01:10:41.842Z,7.70
2023-04-12T01:13:08.486Z,7.71
2023-04-12T01:15:40.031Z,7.70
2023-04-12T01:18:14.815Z,7.70
2023-04-12T01:20:45.315Z,7.71
2023-04-12T01:23:31.257Z,7.69
2023-04-12T01:26:36.211Z,7.67
2023-04-12T01:29:09.022Z,7.68
2023-04-12T01:31:38.934Z,7.67
2023-04-12T01:34:08.218Z,7.66
2023-04-12T01:36:37.699Z,7.66
2023-04-12T01:39:05.804Z,7.67
2023-04-12T01:41:41.955Z,7.68
2023-04-12T01:44:08.984Z,7.67
2023-04-12T01:46:37.683Z,7.66
2023-04-12T01:49:04.643Z,7.69
2023-04-12T01:51:46.350Z,7.69
2023-04-12T01:54:25.014Z,7.67
2023-04-12T01:56:57.988Z,7.67
2023-04-12T01:59:30.550Z,7.68
2023-04-12T02:01:58.312Z,7.69
2023-04-12T02:04:27.924Z,7.68
2023-04-12T02:06:55.015Z,7.68
2023-04-12T02:09:22.939Z,7.67
2023-04-12T02:11:50.827Z,7.69
2023-04-12T02:14:17.782Z,7.66
2023-04-12T02:16:48.360Z,7.65
2023-04-12T02:19:15.199Z,7.66
2023-04-12T02:21:43.606Z,7.64
2023-04-12T02:24:11.821Z,7.64
2023-04-12T02:26:39.409Z,7.66
2023-04-12T02:29:10.533Z,7.64
2023-04-12T02:31:39.194Z,7.63
2023-04-12T02:34:06.529Z,7.64
2023-04-12T02:36:35.300Z,7.64
2023-04-12T02:39:02.067Z,7.63
2023-04-12T02:41:28.911Z,7.64
2023-04-12T02:43:56.105Z,7.62
2023-04-12T02:46:25.451Z,7.61
2023-04-12T02:48:52.415Z,7.61
2023-04-12T02:51:19.176Z,7.62
2023-04-12T02:53:45.929Z,7.62
2023-04-12T02:56:13.122Z,7.63
2023-04-12T02:58:40.055Z,7.60
2023-04-12T03:01:07.960Z,7.63
2023-04-12T03:03:35.959Z,7.60
2023-04-12T03:06:03.565Z,7.59
2023-04-12T03:08:30.695Z,7.58
2023-04-12T03:10:57.998Z,7.57
2023-04-12T03:13:24.907Z,7.57
2023-04-12T03:16:00.105Z,7.57
2023-04-12T03:18:27.066Z,7.56
2023-04-12T03:20:53.909Z,7.55
2023-04-12T03:23:20.947Z,7.54
2023-04-12T03:25:47.853Z,7.55
2023-04-12T03:28:14.717Z,7.55
2023-04-12T03:30:41.577Z,7.54
2023-04-12T03:33:08.503Z,7.51
2023-04-12T03:35:35.534Z,7.51
2023-04-12T03:38:02.411Z,7.49
2023-04-12T03:40:29.207Z,7.47
2023-04-12T03:42:55.926Z,7.44
2023-04-12T03:45:22.775Z,7.43
2023-04-12T03:47:49.746Z,7.42
2023-04-12T03:50:16.930Z,7.38
2023-04-12T03:52:43.798Z,7.38
2023-04-12T03:55:12.134Z,7.37
2023-04-12T03:57:38.948Z,7.35
2023-04-12T04:00:08.783Z,7.34
2023-04-12T04:02:36.419Z,7.33
2023-04-12T04:05:04.076Z,7.32
2023-04-12T04:07:32.062Z,7.30
2023-04-12T04:09:59.041Z,7.30
2023-04-12T04:12:25.865Z,7.30
2023-04-12T04:14:52.644Z,7.29
2023-04-12T04:17:19.460Z,7.28
2023-04-12T04:19:46.272Z,7.27
2023-04-12T04:22:13.966Z,7.28
2023-04-12T04:24:40.721Z,7.30
2023-04-12T04:27:07.488Z,7.28
2023-04-12T04:29:34.294Z,7.28
2023-04-12T04:32:01.602Z,7.29
2023-04-12T04:34:28.699Z,7.26
2023-04-12T04:36:55.481Z,7.24
2023-04-12T04:39:22.976Z,7.26
2023-04-12T04:41:54.890Z,7.28
2023-04-12T04:44:22.487Z,7.26
2023-04-12T04:46:49.445Z,7.27
2023-04-12T04:49:16.525Z,7.26
2023-04-12T04:51:43.286Z,7.25
2023-04-12T04:54:10.204Z,7.28
2023-04-12T04:56:37.353Z,7.28
2023-04-12T04:59:04.246Z,7.27
2023-04-12T05:01:32.268Z,7.24
2023-04-12T05:03:59.268Z,7.25
2023-04-12T05:06:26.166Z,7.27
2023-04-12T05:08:53.052Z,7.27
2023-04-12T05:11:20.717Z,7.28
2023-04-12T05:13:47.551Z,7.29
2023-04-12T05:16:14.465Z,7.29
2023-04-12T05:18:41.295Z,7.30
2023-04-12T05:21:08.242Z,7.32
2023-04-12T05:23:43.466Z,7.32
2023-04-12T05:26:10.672Z,7.30
2023-04-12T05:28:37.507Z,7.30
2023-04-12T05:31:06.296Z,7.32
2023-04-12T05:33:34.741Z,7.35
2023-04-12T05:36:01.885Z,7.34
2023-04-12T05:38:28.899Z,7.35
2023-04-12T05:40:55.871Z,7.35
2023-04-12T05:43:22.794Z,7.35
2023-04-12T05:45:51.210Z,7.36
2023-04-12T05:48:19.111Z,7.35
2023-04-12T05:50:52.794Z,7.38
2023-04-12T05:53:19.802Z,7.37
2023-04-12T05:55:46.751Z,7.39
2023-04-12T05:58:13.762Z,7.39
2023-04-12T06:00:44.257Z,7.44
2023-04-12T06:03:12.009Z,7.43
2023-04-12T06:05:39.141Z,7.42
2023-04-12T06:08:06.570Z,7.39
2023-04-12T06:10:33.619Z,7.40
2023-04-12T06:13:00.761Z,7.44
2023-04-12T06:15:27.747Z,7.46
2023-04-12T06:17:54.870Z,7.49
2023-04-12T06:20:21.713Z,7.50
2023-04-12T06:22:48.625Z,7.53
2023-04-12T06:25:16.884Z,7.54
2023-04-12T06:27:44.118Z,7.58
2023-04-12T06:30:11.237Z,7.58
2023-04-12T06:32:38.940Z,7.60
2023-04-12T06:35:06.576Z,7.64
2023-04-12T06:37:33.629Z,7.69
2023-04-12T06:40:00.524Z,7.74
2023-04-12T06:42:27.311Z,7.77
2023-04-12T06:44:54.130Z,7.80
2023-04-12T06:47:22.944Z,7.83
2023-04-12T06:49:53.251Z,7.82
2023-04-12T06:52:26.927Z,7.79
2023-04-12T06:54:54.799Z,7.82
2023-04-12T06:57:21.850Z,7.88
2023-04-12T06:59:49.113Z,7.95
2023-04-12T07:02:16.139Z,8.06
2023-04-12T07:04:42.880Z,8.16
2023-04-12T07:07:10.505Z,8.22
2023-04-12T07:09:37.389Z,8.25
2023-04-12T07:12:04.255Z,8.23
2023-04-12T07:14:31.420Z,8.22
2023-04-12T07:16:58.237Z,8.24
2023-04-12T07:19:25.130Z,8.32
2023-04-12T07:21:51.999Z,8.39
2023-04-12T07:24:18.720Z,8.42
2023-04-12T07:26:45.516Z,8.47
2023-04-12T07:29:12.339Z,8.46
2023-04-12T07:31:39.156Z,8.52
2023-04-12T07:34:05.975Z,8.51
2023-04-12T07:36:32.862Z,8.52
2023-04-12T07:39:00.068Z,8.57
2023-04-12T07:41:27.174Z,8.69
2023-04-12T07:43:54.023Z,8.77
2023-04-12T07:46:21.180Z,8.85
2023-04-12T07:48:48.187Z,8.86
2023-04-12T07:51:14.947Z,8.88
2023-04-12T07:53:42.558Z,8.94
2023-04-12T07:56:09.640Z,9.05
2023-04-12T07:58:36.605Z,9.15
2023-04-12T08:01:03.618Z,9.25
2023-04-12T08:03:30.828Z,9.32
2023-04-12T08:05:57.690Z,9.38
2023-04-12T08:08:24.722Z,9.38
2023-04-12T08:10:52.798Z,9.40
2023-04-12T08:13:20.161Z,9.50
2023-04-12T08:15:47.780Z,9.64
2023-04-12T08:18:15.126Z,9.81
2023-04-12T08:20:44.225Z,10.02
2023-04-12T08:23:11.958Z,10.32
2023-04-12T08:25:39.637Z,10.63
2023-04-12T08:28:09.283Z,10.99
2023-04-12T08:30:36.991Z,11.52
2023-04-12T08:33:04.268Z,11.70
2023-04-12T08:35:31.895Z,11.67
2023-04-12T08:37:58.887Z,11.55
2023-04-12T08:40:25.910Z,11.54
2023-04-12T08:42:53.951Z,11.58
2023-04-12T08:45:23.804Z,11.66
2023-04-12T08:47:50.722Z,11.67
2023-04-12T08:50:18.235Z,11.69
2023-04-12T08:52:48.996Z,11.55
2023-04-12T08:55:16.013Z,11.51
2023-04-12T08:57:43.703Z,11.58
2023-04-12T09:00:11.629Z,11.49
2023-04-12T09:02:39.476Z,11.47
2023-04-12T09:05:07.390Z,11.68
2023-04-12T09:07:34.659Z,11.94
2023-04-12T09:10:01.900Z,11.91
2023-04-12T09:12:29.061Z,11.90
2023-04-12T09:15:12.849Z,11.80
2023-04-12T09:17:42.671Z,11.91
2023-04-12T09:20:12.652Z,11.96
2023-04-12T09:22:44.589Z,12.31
2023-04-12T09:25:15.254Z,12.47
2023-04-12T09:27:54.436Z,12.55
2023-04-12T09:30:21.295Z,12.57
2023-04-12T09:32:51.380Z,12.63
2023-04-12T09:35:18.901Z,12.87
2023-04-12T09:37:45.879Z,12.87
2023-04-12T09:40:13.038Z,12.90
2023-04-12T09:42:53.999Z,12.84
2023-04-12T09:45:26.177Z,12.71
2023-04-12T09:47:54.849Z,12.87
2023-04-12T09:50:23.661Z,12.93
2023-04-12T09:52:51.113Z,12.87
2023-04-12T09:55:18.424Z,12.89
2023-04-12T09:57:46.088Z,12.83
2023-04-12T10:00:17.952Z,12.64
2023-04-12T10:02:47.816Z,12.72
2023-04-12T10:05:20.191Z,12.79
2023-04-12T10:07:47.754Z,12.77
2023-04-12T10:10:16.828Z,12.78
2023-04-12T10:12:45.895Z,12.75
2023-04-12T10:15:13.678Z,12.57
2023-04-12T10:17:47.589Z,12.89
2023-04-12T10:20:17.485Z,13.11
2023-04-12T10:22:50.304Z,13.25
2023-04-12T10:25:23.102Z,13.44
2023-04-12T10:27:50.361Z,13.59
2023-04-12T10:30:24.050Z,13.72
2023-04-12T10:33:12.932Z,13.74
2023-04-12T10:35:49.162Z,13.74
2023-04-12T10:38:17.274Z,13.92
2023-04-12T10:41:27.242Z,14.08
2023-04-12T10:44:24.808Z,13.77
2023-04-12T10:46:51.953Z,13.69
2023-04-12T10:49:19.383Z,13.51
2023-04-12T10:52:04.304Z,13.15
2023-04-12T10:54:35.498Z,12.73
2023-04-12T10:57:04.408Z,12.32
2023-04-12T10:59:59.699Z,12.19
2023-04-12T11:02:27.090Z,12.01
2023-04-12T11:05:09.525Z,12.11
2023-04-12T11:07:44.490Z,12.31
2023-04-12T11:10:16.727Z,12.50
2023-04-12T11:13:09.093Z,12.46
2023-04-12T11:15:40.223Z,12.51
2023-04-12T11:18:07.646Z,12.59
2023-04-12T11:20:35.098Z,12.70
2023-04-12T11:23:03.389Z,12.84
2023-04-12T11:25:31.848Z,12.96
2023-04-12T11:28:01.029Z,13.29
2023-04-12T11:30:27.997Z,13.42
2023-04-12T11:32:54.791Z,13.41
2023-04-12T11:35:27.582Z,13.44
2023-04-12T11:37:58.546Z,13.50
2023-04-12T11:40:26.343Z,13.47
2023-04-12T11:42:53.238Z,13.39
2023-04-12T11:45:20.427Z,13.54
2023-04-12T11:47:47.468Z,13.73
2023-04-12T11:50:30.209Z,13.59
2023-04-12T11:53:11.481Z,13.82
2023-04-12T11:55:38.599Z,13.97
2023-04-12T11:58:05.583Z,13.94
2023-04-12T12:00:32.615Z,13.89
2023-04-12T12:03:07.606Z,13.83
2023-04-12T12:05:41.363Z,14.02
2023-04-12T12:08:09.916Z,13.96
2023-04-12T12:10:51.943Z,13.77
2023-04-12T12:13:25.753Z,14.17
2023-04-12T12:15:53.326Z,14.81
2023-04-12T12:18:26.617Z,15.42
2023-04-12T12:20:53.420Z,15.76
2023-04-12T12:23:33.514Z,15.53
2023-04-12T12:26:17.006Z,15.29
2023-04-12T12:28:51.368Z,15.35
2023-04-12T12:31:23.991Z,15.16
2023-04-12T12:33:57.041Z,15.49
2023-04-12T12:36:32.567Z,15.89
2023-04-12T12:39:13.198Z,15.89
2023-04-12T12:41:41.412Z,15.51
2023-04-12T12:44:09.072Z,15.07
2023-04-12T12:49:06.251Z,14.95
2023-04-12T12:51:33.337Z,14.91
2023-04-12T12:54:01.150Z,14.61
2023-04-12T12:56:28.051Z,14.56
2023-04-12T12:58:55.070Z,14.44
2023-04-12T13:01:22.022Z,14.35
2023-04-12T13:03:48.998Z,14.23
2023-04-12T13:06:16.064Z,14.07
2023-04-12T13:08:42.808Z,14.05
2023-04-12T13:11:09.742Z,14.09
2023-04-12T13:13:36.711Z,14.23
2023-04-12T13:16:03.780Z,14.67
2023-04-12T13:18:30.767Z,15.08
2023-04-12T13:20:57.594Z,15.06
2023-04-12T13:23:24.381Z,15.24
2023-04-12T13:25:51.184Z,14.98
2023-04-12T13:28:18.040Z,14.84
2023-04-12T13:30:44.906Z,14.78
2023-04-12T13:33:14.342Z,14.80
2023-04-12T13:35:45.375Z,14.95
2023-04-12T13:38:12.183Z,15.08
2023-04-12T13:40:38.990Z,15.21
2023-04-12T13:43:07.768Z,14.65
2023-04-12T13:45:34.539Z,14.39
2023-04-12T13:48:01.636Z,14.21
2023-04-12T13:50:28.599Z,14.13
2023-04-12T13:52:55.595Z,14.35
2023-04-12T13:55:22.425Z,14.49
2023-04-12T13:57:49.240Z,14.37
2023-04-12T14:00:16.808Z,14.17
2023-04-12T14:02:44.056Z,14.41
2023-04-12T14:05:12.116Z,14.56
2023-04-12T14:07:38.932Z,15.00
2023-04-12T14:10:06.637Z,15.10
2023-04-12T14:12:33.556Z,14.63
2023-04-12T14:15:00.689Z,14.39
2023-04-12T14:17:32.800Z,14.30
2023-04-12T14:20:00.697Z,14.29
2023-04-12T14:22:28.260Z,14.01
2023-04-12T14:24:55.298Z,13.65
2023-04-12T14:27:22.645Z,13.21
2023-04-12T14:29:49.765Z,13.03
2023-04-12T14:32:16.753Z,12.87
2023-04-12T14:34:44.036Z,12.75
2023-04-12T14:37:11.302Z,12.73
2023-04-12T14:39:38.358Z,12.73
2023-04-12T14:42:06.416Z,12.84
2023-04-12T14:44:34.493Z,12.99
2023-04-12T14:47:01.467Z,13.07
2023-04-12T14:49:32.909Z,13.19
2023-04-12T14:52:00.734Z,13.72
2023-04-12T14:54:27.755Z,13.89
2023-04-12T14:56:56.013Z,14.08
2023-04-12T14:59:23.639Z,14.04
2023-04-12T15:01:52.957Z,13.98
2023-04-12T15:04:20.315Z,13.96
2023-04-12T15:06:47.627Z,13.75
2023-04-12T15:09:17.841Z,13.72
2023-04-12T15:11:49.569Z,13.76
2023-04-12T15:14:18.292Z,13.62
2023-04-12T15:16:46.569Z,13.66
2023-04-12T15:19:18.634Z,13.57
2023-04-12T15:21:47.630Z,13.49
2023-04-12T15:24:14.530Z,13.48
2023-04-12T15:26:41.596Z,13.33
2023-04-12T15:29:09.575Z,13.27
2023-04-12T15:31:36.649Z,13.28
2023-04-12T15:34:03.628Z,13.27
2023-04-12T15:36:50.901Z,13.23
2023-04-12T15:39:19.036Z,13.29
2023-04-12T15:41:46.520Z,13.23
2023-04-12T15:44:13.621Z,13.19
2023-04-12T15:46:43.711Z,13.15
2023-04-12T15:49:11.618Z,13.20
2023-04-12T15:51:38.802Z,13.15
2023-04-12T15:54:06.374Z,13.24
2023-04-12T15:56:34.769Z,13.24
2023-04-12T15:59:01.871Z,13.19
2023-04-12T16:01:29.083Z,13.23
2023-04-12T16:03:56.272Z,13.19
2023-04-12T16:06:25.337Z,13.23
2023-04-12T16:08:55.051Z,13.16
2023-04-12T16:11:24.065Z,12.99
2023-04-12T16:13:52.077Z,12.88
2023-04-12T16:16:22.076Z,12.82
2023-04-12T16:18:49.320Z,12.76
2023-04-12T16:21:20.372Z,12.73
2023-04-12T16:23:49.309Z,12.53
2023-04-12T16:26:24.495Z,12.47
2023-04-12T16:28:53.565Z,12.31
2023-04-12T16:31:21.229Z,12.27
2023-04-12T16:33:52.273Z,12.34
2023-04-12T16:36:19.252Z,12.30
2023-04-12T16:38:46.449Z,12.12
2023-04-12T16:41:13.524Z,12.01
2023-04-12T16:43:41.500Z,11.90
2023-04-12T16:46:10.792Z,11.84
2023-04-12T16:48:41.671Z,11.85
2023-04-12T16:51:09.009Z,11.69
2023-04-12T16:53:37.253Z,11.56
2023-04-12T16:56:04.764Z,11.32
2023-04-12T16:58:33.194Z,11.20
2023-04-12T17:01:00.207Z,11.06
2023-04-12T17:03:27.796Z,10.98
2023-04-12T17:05:54.812Z,10.95
2023-04-12T17:08:22.792Z,10.89
2023-04-12T17:10:49.784Z,10.76
2023-04-12T17:13:18.747Z,10.69
2023-04-12T17:15:48.405Z,10.63
2023-04-12T17:18:15.655Z,10.58
2023-04-12T17:20:43.016Z,10.48
2023-04-12T17:23:10.431Z,10.46
2023-04-12T17:25:37.979Z,10.44
2023-04-12T17:28:05.248Z,10.40
2023-04-12T17:30:32.482Z,10.33
2023-04-12T17:33:01.701Z,10.42
2023-04-12T17:35:29.078Z,10.47
2023-04-12T17:37:56.617Z,10.47
2023-04-12T17:40:23.521Z,10.39
2023-04-12T17:42:50.737Z,10.33
2023-04-12T17:45:19.418Z,10.29
2023-04-12T17:47:46.522Z,10.29
2023-04-12T17:50:14.404Z,10.18
2023-04-12T17:52:42.504Z,10.06
2023-04-12T17:55:09.937Z,9.93
2023-04-12T17:57:37.000Z,9.79
2023-04-12T18:00:13.558Z,9.67
2023-04-12T18:02:41.048Z,9.50
2023-04-12T18:05:08.353Z,9.38
2023-04-12T18:07:35.698Z,9.24
2023-04-12T18:10:03.357Z,9.13
2023-04-12T18:12:30.331Z,9.02
2023-04-12T18:14:57.358Z,8.94
2023-04-12T18:17:26.591Z,8.87
2023-04-12T18:19:54.575Z,8.78
2023-04-12T18:22:21.681Z,8.69
2023-04-12T18:24:48.752Z,8.60
2023-04-12T18:27:15.842Z,8.50
2023-04-12T18:29:42.795Z,8.44
2023-04-12T18:32:09.647Z,8.34
2023-04-12T18:34:36.891Z,8.27
2023-04-12T18:37:06.113Z,8.21
2023-04-12T18:39:34.715Z,8.12
2023-04-12T18:42:01.763Z,8.05
2023-04-12T18:44:30.034Z,7.98
2023-04-12T18:46:57.028Z,7.91
2023-04-12T18:49:24.425Z,7.84
2023-04-12T18:51:53.322Z,7.77
2023-04-12T18:54:21.244Z,7.70
2023-04-12T18:56:48.228Z,7.64
2023-04-12T18:59:17.843Z,7.58
2023-04-12T19:01:45.602Z,7.55
2023-04-12T19:04:12.980Z,7.48
2023-04-12T19:06:40.051Z,7.44
2023-04-12T19:09:08.375Z,7.37
2023-04-12T19:11:37.040Z,7.30
2023-04-12T19:14:04.566Z,7.26
2023-04-12T19:16:32.439Z,7.21
2023-04-12T19:19:00.456Z,7.13
2023-04-12T19:21:31.712Z,7.11
2023-04-12T19:23:59.000Z,7.07
2023-04-12T19:26:28.280Z,7.00
2023-04-12T19:28:58.322Z,6.96
2023-04-12T19:31:25.885Z,6.91
2023-04-12T19:33:54.839Z,6.90
2023-04-12T19:36:23.882Z,6.83
2023-04-12T19:38:50.893Z,6.79
2023-04-12T19:41:18.052Z,6.75
2023-04-12T19:43:45.003Z,6.73
2023-04-12T19:46:11.871Z,6.69
2023-04-12T19:48:38.885Z,6.63
2023-04-12T19:51:05.951Z,6.63
2023-04-12T19:53:34.065Z,6.57
2023-04-12T19:56:04.184Z,6.52
2023-04-12T19:58:32.292Z,6.49
2023-04-12T20:01:02.287Z,6.46
2023-04-12T20:03:30.341Z,6.43
2023-04-12T20:05:59.162Z,6.40
2023-04-12T20:08:28.564Z,6.37
2023-04-12T20:10:56.354Z,6.35
2023-04-12T20:13:23.303Z,6.31
2023-04-12T20:15:51.189Z,6.30
2023-04-12T20:18:18.123Z,6.27
2023-04-12T20:20:45.356Z,6.24
2023-04-12T20:23:14.043Z,6.23
2023-04-12T20:25:41.978Z,6.20
2023-04-12T20:28:09.271Z,6.19
2023-04-12T20:30:39.541Z,6.16
2023-04-12T20:33:07.139Z,6.13
2023-04-12T20:35:34.528Z,6.10
2023-04-12T20:38:01.419Z,6.09
2023-04-12T20:40:29.966Z,6.07
2023-04-12T20:42:57.093Z,6.03
2023-04-12T20:45:23.902Z,6.00
2023-04-12T20:47:51.165Z,5.99
2023-04-12T20:50:18.797Z,6.02
2023-04-12T20:52:46.255Z,6.02
2023-04-12T20:55:14.259Z,6.04
2023-04-12T20:57:41.299Z,6.02
2023-04-12T21:00:18.371Z,6.02
2023-04-12T21:02:46.394Z,5.99
2023-04-12T21:05:17.292Z,5.97
2023-04-12T21:07:46.962Z,5.94
2023-04-12T21:10:15.060Z,5.95
2023-04-12T21:12:45.185Z,5.93
2023-04-12T21:15:12.310Z,5.91
2023-04-12T21:17:39.160Z,5.88
2023-04-12T21:20:13.896Z,5.87
2023-04-12T21:22:43.230Z,5.88
2023-04-12T21:25:16.767Z,5.88
2023-04-12T21:27:45.821Z,5.87
2023-04-12T21:30:13.728Z,5.87
2023-04-12T21:32:41.436Z,5.88
2023-04-12T21:35:08.985Z,5.88
2023-04-12T21:37:36.956Z,5.87
2023-04-12T21:40:13.646Z,5.88
2023-04-12T21:42:41.112Z,5.86
2023-04-12T21:45:09.708Z,5.86
2023-04-12T21:47:39.540Z,5.89
2023-04-12T21:50:07.926Z,5.95
2023-04-12T21:52:35.058Z,6.00
2023-04-12T21:55:02.239Z,6.08
2023-04-12T21:57:33.308Z,6.13
2023-04-12T22:00:00.792Z,6.19
2023-04-12T22:02:28.015Z,6.23
2023-04-12T22:04:54.993Z,6.26
2023-04-12T22:07:21.875Z,6.28
2023-04-12T22:09:48.692Z,6.29
2023-04-12T22:12:18.224Z,6.35
2023-04-12T22:14:49.939Z,6.38
2023-04-12T22:17:21.457Z,6.44
2023-04-12T22:19:48.660Z,6.47
2023-04-12T22:22:16.234Z,6.52
2023-04-12T22:24:44.207Z,6.56
2023-04-12T22:27:11.007Z,6.56
2023-04-12T22:29:38.030Z,6.53
2023-04-12T22:32:05.091Z,6.46
2023-04-12T22:34:32.614Z,6.38
2023-04-12T22:37:02.909Z,6.31
2023-04-12T22:39:31.847Z,6.27
2023-04-12T22:41:59.506Z,6.23
2023-04-12T22:44:27.182Z,6.18
2023-04-12T22:46:55.363Z,6.15
2023-04-12T22:49:28.515Z,6.12
2023-04-12T22:51:55.993Z,6.12
2023-04-12T22:54:24.430Z,6.10
2023-04-12T22:56:51.892Z,6.08
2023-04-12T22:59:20.166Z,6.01
2023-04-12T23:01:47.463Z,5.96
2023-04-12T23:04:14.960Z,5.90
2023-04-12T23:06:43.169Z,5.85
2023-04-12T23:09:11.426Z,5.79
2023-04-12T23:11:40.013Z,5.75
2023-04-12T23:14:08.018Z,5.70
2023-04-12T23:16:36.027Z,5.69
2023-04-12T23:19:06.397Z,5.64
2023-04-12T23:21:33.278Z,5.61
2023-04-12T23:24:00.326Z,5.58
2023-04-12T23:26:27.453Z,5.56
2023-04-12T23:28:54.223Z,5.56
2023-04-12T23:31:20.987Z,5.54
2023-04-12T23:33:47.912Z,5.58
2023-04-12T23:36:14.706Z,5.58
2023-04-12T23:38:44.465Z,5.58
2023-04-12T23:41:12.640Z,5.58
2023-04-12T23:43:39.812Z,5.60
2023-04-12T23:46:06.970Z,5.62
2023-04-12T23:48:33.919Z,5.62
2023-04-12T23:51:00.746Z,5.64
2023-04-12T23:53:27.581Z,5.65
2023-04-12T23:55:54.385Z,5.64
2023-04-12T23:58:21.757Z,5.64
